Time;durP1;ratioP1;P1;durP2;ratioP2;P2;SDS_P1;SDS_P2;PMS_P1;PMS_P2;Temp;Humidity;BMP_temperature;BMP_pressure;BME280_temperature;BME280_humidity;BME280_pressure;Samples;Min_cycle;Max_cycle;Signal;HPM_P1;HPM_P2
2024/02/01 00:01:02;;;;;;;29.52;16.00;;;;;;;-3.60;78.13;94174.06;5079098;28;20132;-71
2024/02/01 00:03:29;;;;;;;26.00;14.85;;;;;;;-3.64;77.87;94167.59;5070915;28;20158;-71
2024/02/01 00:05:56;;;;;;;27.30;14.32;;;;;;;-3.68;77.03;94166.19;5073310;28;20391;-72
2024/02/01 00:08:23;;;;;;;23.63;14.25;;;;;;;-3.70;76.79;94170.50;5068193;28;20056;-72
2024/02/01 00:10:50;;;;;;;24.27;14.70;;;;;;;-3.73;77.81;94165.69;5067833;28;20890;-72
2024/02/01 00:13:17;;;;;;;24.25;14.70;;;;;;;-3.77;78.62;94153.34;5070026;28;20153;-72
2024/02/01 00:15:44;;;;;;;22.42;12.13;;;;;;;-3.76;78.43;94159.16;5069373;28;20167;-72
2024/02/01 00:18:13;;;;;;;17.27;11.02;;;;;;;-3.76;77.73;94166.69;5071288;28;20047;-72
2024/02/01 00:20:40;;;;;;;18.83;10.82;;;;;;;-3.87;78.33;94161.53;5075063;28;20048;-72
2024/02/01 00:23:06;;;;;;;20.35;11.43;;;;;;;-3.92;77.15;94159.34;5069359;28;20074;-72
2024/02/01 00:25:33;;;;;;;23.45;12.38;;;;;;;-3.99;76.99;94158.13;5070467;28;20562;-72
2024/02/01 00:28:02;;;;;;;21.77;11.82;;;;;;;-4.06;76.33;94158.50;5074489;28;20056;-73
2024/02/01 00:30:29;;;;;;;22.23;12.43;;;;;;;-4.12;76.58;94156.38;5077303;28;20051;-73
2024/02/01 00:32:56;;;;;;;23.27;13.55;;;;;;;-4.20;76.58;94151.03;5077131;28;20500;-72
2024/02/01 00:35:25;;;;;;;25.05;13.60;;;;;;;-4.18;77.84;94149.22;5072023;28;20043;-72
2024/02/01 00:37:52;;;;;;;26.08;15.50;;;;;;;-4.25;77.84;94153.84;5069992;28;20070;-72
2024/02/01 00:40:18;;;;;;;24.10;15.27;;;;;;;-4.26;78.42;94159.75;5069217;28;20130;-72
2024/02/01 00:42:45;;;;;;;27.27;15.57;;;;;;;-4.19;79.15;94155.97;5074002;28;20058;-71
2024/02/01 00:45:12;;;;;;;42.08;23.55;;;;;;;-4.14;79.84;94157.38;5071099;28;20040;-71
2024/02/01 00:47:39;;;;;;;40.50;22.92;;;;;;;-4.17;78.49;94161.69;5067323;28;20063;-72
2024/02/01 00:50:07;;;;;;;37.75;22.20;;;;;;;-4.16;78.66;94155.75;5074980;28;20044;-72
2024/02/01 00:52:35;;;;;;;33.17;20.30;;;;;;;-4.14;79.34;94170.72;5076171;28;20158;-72
2024/02/01 00:55:02;;;;;;;35.72;20.73;;;;;;;-4.16;79.37;94163.28;5071031;28;20048;-72
2024/02/01 00:57:29;;;;;;;37.38;20.55;;;;;;;-4.12;80.18;94161.38;5072125;28;20048;-71
2024/02/01 00:59:56;;;;;;;145.43;70.32;;;;;;;-4.16;79.60;94160.00;5074483;28;20041;-71
2024/02/01 01:02:22;;;;;;;53.47;29.08;;;;;;;-4.23;79.36;94164.56;5074863;28;20154;-71
2024/02/01 01:04:49;;;;;;;45.42;25.35;;;;;;;-4.35;80.22;94153.59;5075103;28;20047;-71
2024/02/01 01:07:16;;;;;;;46.53;26.73;;;;;;;-4.34;80.67;94164.44;5073942;28;20052;-71
2024/02/01 01:09:45;;;;;;;48.25;25.60;;;;;;;-4.28;80.95;94159.03;5072091;28;20040;-71
2024/02/01 01:12:12;;;;;;;28.13;17.48;;;;;;;-4.29;81.26;94152.41;5074813;28;20079;-71
2024/02/01 01:14:38;;;;;;;32.40;18.80;;;;;;;-4.36;81.30;94154.50;5077949;28;20056;-71
2024/02/01 01:17:05;;;;;;;31.52;16.88;;;;;;;-4.38;81.47;94153.78;5072308;28;20059;-71
2024/02/01 01:19:32;;;;;;;26.80;15.30;;;;;;;-4.41;80.93;94141.44;5074425;28;20415;-71
2024/02/01 01:21:59;;;;;;;27.55;15.20;;;;;;;-4.43;80.83;94146.53;5071013;28;20052;-71
2024/02/01 01:24:26;;;;;;;19.83;11.35;;;;;;;-4.39;80.86;94143.84;5071177;28;20055;-72
2024/02/01 01:26:55;;;;;;;18.55;11.38;;;;;;;-4.46;80.43;94135.91;5087695;28;20040;-71
2024/02/01 01:29:21;;;;;;;18.45;10.00;;;;;;;-4.42;80.76;94137.31;5070345;28;20049;-71
2024/02/01 01:31:48;;;;;;;19.02;9.77;;;;;;;-4.51;78.98;94136.19;5074301;28;20425;-71
2024/02/01 01:34:15;;;;;;;20.67;12.68;;;;;;;-4.59;78.54;94129.13;5073063;28;20044;-71
2024/02/01 01:36:42;;;;;;;17.85;11.45;;;;;;;-4.58;79.23;94130.75;5071163;28;20083;-72
2024/02/01 01:39:10;;;;;;;24.38;13.90;;;;;;;-4.59;79.49;94131.66;5086159;28;20044;-71
2024/02/01 01:41:37;;;;;;;25.40;13.05;;;;;;;-4.61;80.55;94122.59;5076426;28;20055;-71
2024/02/01 01:44:05;;;;;;;23.38;13.45;;;;;;;-4.47;81.34;94124.25;5074214;28;20044;-71
2024/02/01 01:46:33;;;;;;;22.63;14.00;;;;;;;-4.47;81.84;94120.06;5075787;28;20126;-71
2024/02/01 01:49:00;;;;;;;21.25;13.38;;;;;;;-4.53;81.03;94104.59;5072157;28;20423;-71
2024/02/01 01:51:27;;;;;;;21.42;12.32;;;;;;;-4.47;80.71;94114.22;5071287;28;20438;-71
2024/02/01 01:53:56;;;;;;;25.25;13.57;;;;;;;-4.50;80.77;94114.44;5076443;28;20042;-71
2024/02/01 01:56:23;;;;;;;28.65;16.73;;;;;;;-4.51;80.45;94116.13;5075621;28;20087;-71
2024/02/01 01:58:52;;;;;;;32.78;18.42;;;;;;;-4.62;80.86;94111.78;5074878;28;20048;-71
2024/02/01 02:01:21;;;;;;;55.95;27.95;;;;;;;-4.70;81.35;94097.22;5075885;28;20060;-71
2024/02/01 02:03:49;;;;;;;71.50;37.10;;;;;;;-4.69;82.07;94103.03;5072600;28;20055;-71
2024/02/01 02:06:16;;;;;;;58.20;31.02;;;;;;;-4.62;83.14;94103.44;5080483;28;20046;-72
2024/02/01 02:08:43;;;;;;;52.17;27.80;;;;;;;-4.62;83.14;94101.75;5074114;28;20527;-72
2024/02/01 02:11:11;;;;;;;58.40;31.25;;;;;;;-4.60;82.49;94094.13;5080114;28;20061;-72
2024/02/01 02:13:37;;;;;;;86.32;44.10;;;;;;;-4.65;82.08;94086.09;5073154;28;20119;-72
2024/02/01 02:16:05;;;;;;;74.88;40.92;;;;;;;-4.57;82.13;94091.44;5070043;28;20056;-72
2024/02/01 02:18:33;;;;;;;48.75;26.75;;;;;;;-4.62;82.30;94090.91;5071632;28;20048;-71
2024/02/01 02:21:02;;;;;;;49.25;27.20;;;;;;;-4.67;82.45;94088.72;5069951;28;20049;-71
2024/02/01 02:23:31;;;;;;;33.50;19.90;;;;;;;-4.68;81.42;94079.56;5072331;28;20044;-71
2024/02/01 02:25:58;;;;;;;33.90;17.40;;;;;;;-4.65;80.67;94083.56;5077884;28;20052;-71
2024/02/01 02:28:25;;;;;;;45.70;23.98;;;;;;;-4.63;80.83;94081.78;5080306;28;20063;-70
2024/02/01 02:30:52;;;;;;;44.55;21.73;;;;;;;-4.58;81.74;94087.34;5070479;28;20135;-70
2024/02/01 02:33:19;;;;;;;23.60;12.70;;;;;;;-4.58;80.00;94087.34;5073965;28;20484;-70
2024/02/01 02:35:46;;;;;;;20.67;10.95;;;;;;;-4.62;79.30;94076.69;5069757;28;20051;-70
2024/02/01 02:38:13;;;;;;;18.40;10.93;;;;;;;-4.57;79.60;94073.88;5071074;28;20514;-70
2024/02/01 02:40:42;;;;;;;23.20;11.05;;;;;;;-4.65;79.50;94061.00;5070567;28;20500;-70
2024/02/01 02:43:09;;;;;;;17.80;11.07;;;;;;;-4.63;79.87;94075.06;5072327;28;20050;-70
2024/02/01 02:45:35;;;;;;;23.38;11.85;;;;;;;-4.66;80.11;94071.94;5075349;28;20110;-70
2024/02/01 02:48:05;;;;;;;18.52;11.63;;;;;;;-4.73;80.53;94077.34;5073263;28;20044;-70
2024/02/01 02:50:32;;;;;;;46.00;25.52;;;;;;;-4.79;80.57;94079.41;5075418;28;20550;-70
2024/02/01 02:52:59;;;;;;;34.28;20.95;;;;;;;-4.80;81.33;94071.09;5077869;28;20957;-70
2024/02/01 02:55:26;;;;;;;25.38;14.57;;;;;;;-4.83;81.75;94067.09;5071412;28;20051;-71
2024/02/01 02:57:54;;;;;;;29.92;17.00;;;;;;;-4.86;81.90;94057.25;5074897;28;20045;-70
2024/02/01 03:00:21;;;;;;;28.50;17.33;;;;;;;-4.79;82.06;94054.34;5073654;28;20044;-70
2024/02/01 03:02:49;;;;;;;40.08;21.88;;;;;;;-4.85;81.91;94053.03;5078088;28;20049;-70
2024/02/01 03:05:16;;;;;;;34.40;20.45;;;;;;;-4.85;82.22;94056.34;5068667;28;20047;-70
2024/02/01 03:07:43;;;;;;;38.97;22.05;;;;;;;-4.83;81.99;94056.25;5080088;28;20693;-69
2024/02/01 03:10:10;;;;;;;29.70;16.67;;;;;;;-4.83;83.09;94052.03;5069418;28;20041;-69
2024/02/01 03:12:40;;;;;;;21.25;12.80;;;;;;;-4.86;82.81;94049.72;5069262;28;20154;-69
2024/02/01 03:15:09;;;;;;;21.52;11.35;;;;;;;-4.87;82.71;94049.81;5070942;28;20090;-69
2024/02/01 03:17:37;;;;;;;25.77;12.77;;;;;;;-4.91;82.73;94050.91;5081515;28;20047;-70
2024/02/01 03:20:17;;;;;;;42.92;21.75;;;;;;;-4.92;82.54;94047.59;5072767;28;20512;-69
2024/02/01 03:22:45;;;;;;;29.85;17.05;;;;;;;-4.92;82.33;94040.06;5079246;28;20080;-70
2024/02/01 03:25:13;;;;;;;33.28;19.42;;;;;;;-4.94;81.64;94041.06;5069929;28;20082;-70
2024/02/01 03:27:42;;;;;;;35.80;20.30;;;;;;;-5.07;82.04;94041.00;5072619;28;20052;-70
2024/02/01 03:30:12;;;;;;;38.30;23.95;;;;;;;-5.24;82.69;94022.81;5072227;28;20084;-71
2024/02/01 03:32:40;;;;;;;65.30;36.05;;;;;;;-5.21;82.71;94026.81;5073796;28;20048;-71
2024/02/01 03:35:08;;;;;;;105.90;61.25;;;;;;;-5.06;82.50;94037.63;5073141;28;20186;-71
2024/02/01 03:37:35;;;;;;;92.80;51.22;;;;;;;-5.08;83.27;94034.41;5070836;28;20495;-71
2024/02/01 03:40:02;;;;;;;64.65;39.13;;;;;;;-5.08;83.01;94040.22;5071163;28;20055;-70
2024/02/01 03:42:29;;;;;;;44.58;27.73;;;;;;;-5.37;83.49;94006.03;5075264;28;20127;-70
2024/02/01 03:44:56;;;;;;;55.65;31.38;;;;;;;-5.18;83.40;94034.16;5070646;28;20048;-70
2024/02/01 03:47:24;;;;;;;49.55;29.38;;;;;;;-5.16;84.33;94028.16;5072124;28;20051;-70
2024/02/01 03:49:51;;;;;;;50.58;31.40;;;;;;;-5.13;83.71;94029.69;5075197;28;20039;-70
2024/02/01 03:52:20;;;;;;;44.83;26.00;;;;;;;-5.07;83.72;94036.81;5072062;28;20052;-70
2024/02/01 03:54:48;;;;;;;76.07;39.75;;;;;;;-5.05;84.31;94027.50;5077289;28;21160;-70
2024/02/01 03:57:16;;;;;;;62.42;35.03;;;;;;;-4.98;83.23;94033.75;5078797;28;20049;-70
2024/02/01 03:59:44;;;;;;;64.30;33.83;;;;;;;-4.94;83.13;94036.88;5068092;28;20094;-70
2024/02/01 04:02:14;;;;;;;52.67;31.25;;;;;;;-5.00;82.78;94040.53;5070000;28;20056;-70
2024/02/01 04:04:45;;;;;;;44.25;25.45;;;;;;;-5.00;83.08;94033.03;5072528;28;20048;-70
2024/02/01 04:07:16;;;;;;;43.70;25.60;;;;;;;-5.02;82.71;94039.84;5078175;28;20048;-69
2024/02/01 04:09:44;;;;;;;43.42;25.30;;;;;;;-5.06;83.30;94030.13;5069146;28;20773;-69
2024/02/01 04:12:11;;;;;;;40.92;24.58;;;;;;;-5.13;82.50;94037.97;5064901;28;20064;-70
2024/02/01 04:14:38;;;;;;;36.25;22.73;;;;;;;-5.17;83.01;94024.06;5068999;28;20427;-70
2024/02/01 04:17:06;;;;;;;34.30;19.15;;;;;;;-5.21;82.51;94032.66;5067683;28;20153;-70
2024/02/01 04:19:33;;;;;;;29.88;17.88;;;;;;;-5.26;83.40;94027.94;5074854;28;20044;-70
2024/02/01 04:22:01;;;;;;;30.15;18.15;;;;;;;-5.20;83.85;94034.25;5071737;28;20040;-70
2024/02/01 04:24:28;;;;;;;36.55;21.30;;;;;;;-5.23;83.75;94039.47;5079021;28;20048;-69
2024/02/01 04:26:55;;;;;;;33.00;20.02;;;;;;;-5.27;83.71;94038.81;5076679;28;20048;-69
2024/02/01 04:29:22;;;;;;;45.97;27.90;;;;;;;-5.31;84.01;94034.91;5069115;28;20048;-69
2024/02/01 04:31:49;;;;;;;62.33;36.03;;;;;;;-5.26;84.74;94037.13;5067200;28;20059;-70
2024/02/01 04:34:16;;;;;;;51.38;30.45;;;;;;;-5.23;84.96;94036.97;5070920;28;20051;-70
2024/02/01 04:36:44;;;;;;;54.35;31.08;;;;;;;-5.23;84.76;94036.97;5067645;28;20448;-69
2024/02/01 04:39:13;;;;;;;39.22;22.60;;;;;;;-5.22;84.29;94036.06;5071756;28;20452;-69
2024/02/01 04:41:40;;;;;;;49.05;30.13;;;;;;;-5.24;84.50;94040.34;5073880;28;20121;-69
2024/02/01 04:44:10;;;;;;;36.63;23.52;;;;;;;-5.31;84.53;94031.59;5073066;28;20049;-69
2024/02/01 04:46:36;;;;;;;37.47;20.77;;;;;;;-5.28;85.07;94034.72;5079001;28;20044;-69
2024/02/01 04:49:11;;;;;;;32.38;17.15;;;;;;;-5.30;84.43;94030.69;5070162;28;20411;-70
2024/02/01 04:51:39;;;;;;;29.52;16.85;;;;;;;-5.28;84.13;94033.94;5072058;28;20045;-69
2024/02/01 04:54:06;;;;;;;28.95;16.20;;;;;;;-5.30;83.42;94026.50;5068501;28;20051;-69
2024/02/01 04:56:36;;;;;;;24.20;14.27;;;;;;;-5.25;83.52;94024.53;5071447;28;20052;-69
2024/02/01 04:59:03;;;;;;;23.13;13.80;;;;;;;-5.27;84.15;94028.00;5067641;28;20047;-69
2024/02/01 05:01:31;;;;;;;21.23;12.35;;;;;;;-5.27;84.09;94028.81;5070448;28;20055;-70
2024/02/01 05:03:58;;;;;;;22.38;11.35;;;;;;;-5.23;83.73;94035.25;5074295;28;20055;-69
2024/02/01 05:06:25;;;;;;;16.45;9.10;;;;;;;-5.36;84.10;94027.66;5067309;28;20098;-69
2024/02/01 05:08:53;;;;;;;15.18;9.50;;;;;;;-5.39;82.98;94030.38;5076930;28;20099;-69
2024/02/01 05:11:20;;;;;;;15.45;9.00;;;;;;;-5.42;82.12;94028.03;5076997;28;20570;-69
2024/02/01 05:13:48;;;;;;;15.88;9.75;;;;;;;-5.41;82.92;94027.13;5074110;28;20048;-69
2024/02/01 05:16:15;;;;;;;15.55;9.82;;;;;;;-5.43;83.81;94038.13;5072112;28;20044;-69
2024/02/01 05:18:42;;;;;;;40.63;23.48;;;;;;;-5.39;84.38;94030.38;5071103;28;20044;-69
2024/02/01 05:21:09;;;;;;;119.50;55.75;;;;;;;-5.54;84.55;94039.59;5070521;28;20055;-69
2024/02/01 05:23:36;;;;;;;71.45;37.03;;;;;;;-5.54;84.74;94042.09;5076331;28;20660;-70
2024/02/01 05:26:03;;;;;;;59.88;32.25;;;;;;;-5.58;85.09;94017.31;5072279;28;20416;-69
2024/02/01 05:28:33;;;;;;;75.97;36.47;;;;;;;-5.51;85.42;94031.09;5073869;28;20058;-69
2024/02/01 05:31:01;;;;;;;65.60;35.03;;;;;;;-5.49;85.35;94029.31;5068684;28;20131;-69
2024/02/01 05:33:29;;;;;;;68.07;33.95;;;;;;;-5.50;85.45;94031.00;5068700;28;20135;-69
2024/02/01 05:35:55;;;;;;;81.68;39.03;;;;;;;-5.41;84.36;94027.13;5077451;28;20040;-70
2024/02/01 05:38:22;;;;;;;84.70;40.55;;;;;;;-5.46;84.69;94016.59;5066575;28;20151;-69
2024/02/01 05:40:49;;;;;;;88.07;43.38;;;;;;;-5.40;85.02;94021.25;5069017;28;20048;-69
2024/02/01 05:43:16;;;;;;;65.40;34.72;;;;;;;-5.44;84.24;94021.50;5072206;28;20059;-69
2024/02/01 05:45:43;;;;;;;54.40;27.92;;;;;;;-5.42;83.71;94004.72;5072411;28;20054;-70
2024/02/01 05:48:12;;;;;;;45.78;27.23;;;;;;;-5.37;83.97;94018.53;5075244;28;20045;-70
2024/02/01 05:50:39;;;;;;;44.58;25.58;;;;;;;-5.43;85.28;94010.59;5075852;28;20048;-70
2024/02/01 05:53:09;;;;;;;35.63;19.30;;;;;;;-5.43;85.61;94010.59;5075216;28;20514;-70
2024/02/01 05:55:37;;;;;;;31.58;19.63;;;;;;;-5.47;84.76;94009.97;5071403;28;20172;-69
2024/02/01 05:58:06;;;;;;;37.15;21.52;;;;;;;-5.44;83.98;94022.31;5071845;28;20555;-69
2024/02/01 06:00:33;;;;;;;39.83;23.33;;;;;;;-5.42;84.35;94027.25;5070079;28;20139;-69
2024/02/01 06:03:00;;;;;;;40.80;22.80;;;;;;;-5.39;84.02;94024.53;5076381;28;20074;-69
2024/02/01 06:05:28;;;;;;;35.83;22.65;;;;;;;-5.39;84.45;94027.03;5070541;28;20044;-70
2024/02/01 06:07:55;;;;;;;38.25;21.55;;;;;;;-5.32;84.69;94028.31;5071356;28;20063;-69
2024/02/01 06:10:22;;;;;;;33.95;21.17;;;;;;;-5.30;84.37;94035.69;5072158;28;20060;-70
2024/02/01 06:12:49;;;;;;;48.00;25.65;;;;;;;-5.30;84.78;94026.50;5073470;28;20040;-70
2024/02/01 06:15:16;;;;;;;27.67;15.57;;;;;;;-5.34;85.37;94020.06;5075499;28;20158;-69
2024/02/01 06:17:43;;;;;;;26.20;14.90;;;;;;;-6.09;84.59;93911.88;5072172;28;20159;-69
2024/02/01 06:20:11;;;;;;;33.95;18.10;;;;;;;-5.33;84.91;94031.69;5079102;28;20045;-69
2024/02/01 06:22:40;;;;;;;28.17;17.40;;;;;;;-5.31;84.69;94029.91;5072156;28;20132;-69
2024/02/01 06:25:11;;;;;;;30.52;15.07;;;;;;;-5.23;84.21;94030.22;5072801;28;20505;-69
2024/02/01 06:27:38;;;;;;;27.42;14.50;;;;;;;-5.17;83.55;94031.56;5077824;28;20039;-69
2024/02/01 06:30:10;;;;;;;21.42;11.75;;;;;;;-5.13;83.53;94027.19;5077708;28;20067;-69
2024/02/01 06:32:37;;;;;;;26.10;17.23;;;;;;;-5.21;83.36;94004.28;5072137;28;20051;-69
2024/02/01 06:35:06;;;;;;;80.40;45.72;;;;;;;-5.11;82.45;94022.88;5071835;28;20052;-69
2024/02/01 06:37:35;;;;;;;76.72;44.10;;;;;;;-5.32;82.13;93992.44;5069945;28;20178;-69
2024/02/01 06:40:13;;;;;;;75.03;45.63;;;;;;;-5.30;84.05;93981.41;5072403;28;20452;-69
2024/02/01 06:43:08;;;;;;;75.38;44.10;;;;;;;-4.99;84.40;94018.81;5078272;28;20086;-69
2024/02/01 06:45:44;;;;;;;156.30;89.47;;;;;;;-4.84;84.33;94009.53;5071446;28;20412;-69
2024/02/01 06:48:12;;;;;;;96.95;60.78;;;;;;;-4.71;83.86;94007.06;5077258;28;20514;-69
2024/02/01 06:50:54;;;;;;;80.10;45.95;;;;;;;-4.82;83.51;93970.13;5071490;28;20052;-70
2024/02/01 06:53:23;;;;;;;50.63;32.42;;;;;;;-4.41;81.67;94002.72;5072313;28;20556;-70
2024/02/01 06:56:00;;;;;;;53.03;33.05;;;;;;;-4.32;81.18;94007.94;5075957;28;20051;-70
2024/02/01 06:58:47;;;;;;;54.92;34.33;;;;;;;-4.33;81.22;93988.78;5069420;28;20048;-70
2024/02/01 07:01:33;;;;;;;55.38;35.58;;;;;;;-4.10;81.03;93993.16;5078749;28;20513;-69
2024/02/01 07:04:15;;;;;;;57.75;34.80;;;;;;;-3.92;80.65;93997.00;5072505;28;20105;-70
2024/02/01 07:07:04;;;;;;;57.72;33.72;;;;;;;-3.73;80.33;93997.47;5077170;28;20044;-70
2024/02/01 07:09:36;;;;;;;56.75;35.05;;;;;;;-3.61;79.94;93999.16;5076599;28;20138;-70
2024/02/01 07:12:18;;;;;;;57.67;35.15;;;;;;;-3.46;79.65;93987.28;5075933;28;20509;-70
2024/02/01 07:15:09;;;;;;;164.02;84.22;;;;;;;-3.29;79.02;93982.81;5069408;28;20036;-70
2024/02/01 07:17:43;;;;;;;93.28;56.17;;;;;;;-3.30;76.78;93981.19;5072199;28;20045;-70
2024/02/01 07:20:23;;;;;;;142.88;75.55;;;;;;;-3.17;76.74;93979.44;5069377;28;20045;-70
2024/02/01 07:23:33;;;;;;;88.15;47.42;;;;;;;-3.27;76.63;93955.84;5068464;28;20076;-70
2024/02/01 07:26:01;;;;;;;88.78;46.65;;;;;;;-2.88;75.90;93973.28;5081517;28;20044;-70
2024/02/01 07:58:52;;;;;;;21.48;12.15;;;;;;;-1.55;65.67;93962.81;5069736;28;20066;-69
2024/02/01 08:01:24;;;;;;;21.73;13.38;;;;;;;-1.50;63.59;93952.38;5072197;28;20059;-70
2024/02/01 08:04:01;;;;;;;25.05;13.98;;;;;;;-1.25;66.71;93948.75;5071110;28;20045;-70
2024/02/01 08:09:13;;;;;;;24.00;13.38;;;;;;;-0.85;61.08;93954.13;5069756;28;20520;-70
2024/02/01 08:11:42;;;;;;;22.63;14.50;;;;;;;-0.65;61.74;93946.72;5071406;28;20053;-70
2024/02/01 08:14:10;;;;;;;27.08;17.52;;;;;;;-0.39;64.64;93957.22;5069006;28;20396;-70
2024/02/01 08:16:39;;;;;;;34.30;19.55;;;;;;;-0.22;65.40;93947.50;5073054;28;20416;-70
2024/02/01 08:19:07;;;;;;;35.70;20.15;;;;;;;-0.09;64.01;93949.81;5076793;28;20052;-70
2024/02/01 08:21:37;;;;;;;35.15;21.05;;;;;;;0.13;62.96;93954.69;5074691;28;20582;-70
2024/02/01 08:24:06;;;;;;;39.10;22.10;;;;;;;0.14;61.80;93947.94;5068182;28;20497;-69
2024/02/01 08:26:37;;;;;;;41.95;22.63;;;;;;;0.33;62.16;93948.91;5070138;28;20080;-69
2024/02/01 08:29:06;;;;;;;38.55;24.13;;;;;;;0.40;60.30;93937.34;5068927;28;20131;-69
2024/02/01 08:31:36;;;;;;;34.08;18.98;;;;;;;0.26;61.53;93946.09;5069151;28;20420;-69
2024/02/01 08:34:07;;;;;;;25.75;16.05;;;;;;;-0.64;58.13;93812.88;5071333;28;20048;-69
2024/02/01 08:36:34;;;;;;;29.35;15.00;;;;;;;0.30;58.16;93957.56;5067785;28;20052;-69
2024/02/01 08:39:01;;;;;;;28.63;16.20;;;;;;;0.48;59.59;93949.34;5071232;28;20407;-69
2024/02/01 08:41:35;;;;;;;28.50;13.68;;;;;;;0.70;62.74;93955.13;5067708;28;20508;-69
2024/02/01 08:44:03;;;;;;;29.83;15.02;;;;;;;0.72;58.19;93956.59;5072478;28;20411;-70
2024/02/01 08:46:30;;;;;;;31.60;15.60;;;;;;;0.74;59.22;93942.09;5084115;28;20506;-69
2024/02/01 08:48:57;;;;;;;44.22;14.77;;;;;;;0.78;58.89;93960.31;5072678;28;20496;-69
2024/02/01 08:51:27;;;;;;;36.90;14.10;;;;;;;0.92;58.35;93954.06;5072071;28;20654;-69
2024/02/01 08:53:54;;;;;;;34.15;15.68;;;;;;;0.85;57.70;93918.41;5071553;28;20044;-69
2024/02/01 08:56:21;;;;;;;389.98;217.40;;;;;;;1.27;56.17;93945.19;5067991;28;20040;-69
2024/02/01 08:58:49;;;;;;;143.30;69.35;;;;;;;1.53;60.55;93946.34;5072018;28;20062;-69
2024/02/01 09:01:25;;;;;;;53.88;27.48;;;;;;;1.86;61.15;93942.53;5070112;28;20036;-69
2024/02/01 09:03:52;;;;;;;41.08;20.60;;;;;;;2.11;60.08;93939.53;5067248;28;20052;-69
2024/02/01 09:06:19;;;;;;;30.50;15.63;;;;;;;2.30;56.05;93943.72;5071817;28;20045;-69
2024/02/01 09:08:49;;;;;;;35.40;17.55;;;;;;;2.35;56.92;93933.97;5069217;28;20117;-70
2024/02/01 09:11:18;;;;;;;34.70;15.55;;;;;;;2.35;54.94;93933.97;5075792;28;20415;-70
2024/02/01 09:13:46;;;;;;;30.38;13.52;;;;;;;2.48;54.94;93922.69;5068096;28;20083;-70
2024/02/01 09:16:15;;;;;;;35.20;15.90;;;;;;;2.66;58.25;93926.06;5069187;28;20075;-70
2024/02/01 09:18:42;;;;;;;40.45;18.65;;;;;;;2.70;54.46;93918.97;5077710;28;20059;-70
2024/02/01 09:21:09;;;;;;;41.90;17.77;;;;;;;2.79;53.56;93914.78;5072678;28;20049;-70
2024/02/01 09:23:36;;;;;;;40.33;17.23;;;;;;;2.70;56.92;93896.13;5081324;28;20043;-70
2024/02/01 09:26:08;;;;;;;36.22;16.17;;;;;;;2.94;53.42;93907.44;5071726;28;20933;-70
2024/02/01 09:28:35;;;;;;;33.53;17.48;;;;;;;3.07;52.52;93904.53;5074605;28;20044;-70
2024/02/01 09:31:18;;;;;;;42.80;17.58;;;;;;;3.16;53.87;93902.88;5073228;28;20059;-70
2024/02/01 09:33:45;;;;;;;44.67;18.80;;;;;;;3.10;52.76;93901.69;5075456;28;20102;-70
2024/02/01 09:36:13;;;;;;;37.03;17.67;;;;;;;2.92;51.25;93899.19;5071906;28;20052;-69
2024/02/01 09:38:40;;;;;;;39.95;19.65;;;;;;;3.05;52.44;93893.72;5072845;28;20047;-70
2024/02/01 09:41:15;;;;;;;42.33;18.95;;;;;;;3.14;51.80;93889.53;5074515;28;20056;-69
2024/02/01 09:43:48;;;;;;;58.37;22.70;;;;;;;3.38;54.51;93901.59;5073864;28;20048;-70
2024/02/01 09:46:16;;;;;;;47.63;21.20;;;;;;;3.40;54.84;93898.91;5070582;28;20053;-69
2024/02/01 09:48:44;;;;;;;42.08;21.20;;;;;;;3.45;50.88;93895.00;5073474;28;20078;-69
2024/02/01 09:51:17;;;;;;;36.00;19.42;;;;;;;3.57;52.63;93885.38;5071799;28;20501;-70
2024/02/01 09:53:47;;;;;;;46.67;21.25;;;;;;;3.58;51.40;93881.91;5071377;28;20393;-69
2024/02/01 09:56:16;;;;;;;50.97;29.13;;;;;;;3.81;49.15;93878.84;5071709;28;20559;-70
2024/02/01 09:58:43;;;;;;;37.05;19.70;;;;;;;4.07;51.48;93883.09;5074981;28;20052;-70
2024/02/01 10:01:12;;;;;;;36.25;19.15;;;;;;;4.06;50.71;93867.97;5072237;28;20054;-70
2024/02/01 10:03:42;;;;;;;34.80;18.52;;;;;;;4.33;51.73;93858.53;5078123;28;20047;-70
2024/02/01 10:06:09;;;;;;;38.30;20.50;;;;;;;4.54;53.78;93851.28;5076449;28;20087;-70
2024/02/01 10:08:40;;;;;;;30.30;17.33;;;;;;;4.73;52.10;93836.69;5078485;28;20086;-70
2024/02/01 10:11:07;;;;;;;35.65;18.38;;;;;;;4.93;48.53;93854.19;5070655;28;20421;-70
2024/02/01 10:13:37;;;;;;;27.10;15.25;;;;;;;4.89;47.61;93848.63;5074108;28;20049;-70
2024/02/01 10:16:12;;;;;;;26.98;14.85;;;;;;;4.80;49.86;93819.81;5072114;28;20094;-70
2024/02/01 10:18:40;;;;;;;27.37;15.00;;;;;;;5.15;46.66;93842.59;5070747;28;20054;-70
2024/02/01 10:21:21;;;;;;;24.65;13.60;;;;;;;5.15;43.34;93832.41;5073865;28;20135;-70
2024/02/01 10:23:49;;;;;;;26.65;10.98;;;;;;;5.23;40.21;93826.47;5074924;28;20848;-70
2024/02/01 10:26:24;;;;;;;27.58;10.93;;;;;;;5.37;38.64;93826.78;5070736;28;20052;-70
2024/02/01 10:28:52;;;;;;;31.52;13.98;;;;;;;5.40;42.75;93824.72;5070565;28;20071;-70
2024/02/01 10:31:21;;;;;;;28.30;15.25;;;;;;;5.62;42.08;93814.78;5070522;28;20048;-70
2024/02/01 10:33:50;;;;;;;35.13;17.27;;;;;;;5.45;43.17;93791.09;5070605;28;20051;-70
2024/02/01 10:36:21;;;;;;;40.38;19.02;;;;;;;5.77;46.16;93802.16;5071358;28;20448;-70
2024/02/01 10:38:55;;;;;;;30.27;15.15;;;;;;;5.59;44.53;93795.53;5070656;28;20063;-70
2024/02/01 10:41:29;;;;;;;25.45;14.18;;;;;;;5.81;41.18;93792.41;5070948;28;20052;-70
2024/02/01 10:43:59;;;;;;;55.80;21.83;;;;;;;6.07;44.22;93793.94;5073192;28;20054;-70
2024/02/01 10:46:36;;;;;;;46.08;18.67;;;;;;;6.12;44.09;93792.47;5069515;28;20048;-70
2024/02/01 10:49:17;;;;;;;253.40;85.70;;;;;;;6.44;45.23;93778.91;5072170;28;20575;-70
2024/02/01 10:51:46;;;;;;;99.53;34.60;;;;;;;6.68;43.71;93788.94;5070340;28;20059;-70
2024/02/01 10:54:14;;;;;;;81.47;32.88;;;;;;;6.89;42.79;93779.06;5071893;28;20055;-70
2024/02/01 10:56:42;;;;;;;35.42;14.00;;;;;;;7.02;41.13;93769.03;5076810;28;20044;-71
2024/02/01 10:59:12;;;;;;;22.08;9.50;;;;;;;7.03;34.81;93778.28;5069665;28;20063;-70
2024/02/01 11:01:41;;;;;;;27.45;11.77;;;;;;;7.21;34.20;93775.41;5071624;28;20420;-71
2024/02/01 11:04:11;;;;;;;23.38;10.75;;;;;;;7.24;32.37;93769.16;5069741;28;20114;-70
2024/02/01 11:06:46;;;;;;;13.52;7.20;;;;;;;7.17;30.22;93752.94;5073292;28;20051;-70
2024/02/01 11:09:19;;;;;;;19.92;8.40;;;;;;;7.34;33.03;93763.78;5071678;28;20101;-70
2024/02/01 11:11:50;;;;;;;23.58;10.18;;;;;;;7.37;30.19;93758.34;5069966;28;20471;-70
2024/02/01 11:14:21;;;;;;;21.77;8.55;;;;;;;7.49;30.22;93761.22;5073014;28;20090;-70
2024/02/01 11:16:52;;;;;;;19.83;8.70;;;;;;;7.57;33.93;93748.38;5068956;28;20080;-71
2024/02/01 11:19:22;;;;;;;22.55;9.27;;;;;;;7.58;35.36;93734.59;5070725;28;20040;-70
2024/02/01 11:21:51;;;;;;;16.13;6.03;;;;;;;7.56;31.29;93740.88;5067805;28;20048;-70
2024/02/01 11:24:24;;;;;;;17.90;6.63;;;;;;;7.44;31.81;93725.19;5074655;28;20113;-71
2024/02/01 11:26:54;;;;;;;19.42;7.82;;;;;;;7.46;29.38;93725.81;5076320;28;20109;-70
2024/02/01 11:29:24;;;;;;;21.45;9.10;;;;;;;7.67;30.51;93730.19;5080220;28;20145;-70
2024/02/01 11:31:56;;;;;;;20.63;10.55;;;;;;;7.71;31.29;93723.75;5069348;28;20060;-70
2024/02/01 11:34:24;;;;;;;19.77;7.95;;;;;;;7.80;31.08;93714.22;5070906;28;20094;-70
2024/02/01 11:36:51;;;;;;;14.27;5.65;;;;;;;7.72;32.07;93715.09;5069133;28;20044;-70
2024/02/01 11:39:19;;;;;;;11.10;4.97;;;;;;;7.75;31.70;93714.75;5070130;28;20113;-70
2024/02/01 11:41:47;;;;;;;12.40;5.18;;;;;;;7.74;28.98;93709.81;5070414;28;20050;-69
2024/02/01 11:44:14;;;;;;;19.20;8.52;;;;;;;8.06;28.33;93710.34;5068390;28;20045;-68
2024/02/01 11:46:45;;;;;;;13.43;5.72;;;;;;;7.93;30.02;93698.22;5074172;28;20040;-68
2024/02/01 11:49:16;;;;;;;13.77;5.10;;;;;;;7.96;31.15;93692.72;5071218;28;20051;-68
2024/02/01 11:51:45;;;;;;;12.63;5.55;;;;;;;8.07;30.32;93696.59;5071509;28;20162;-68
2024/02/01 11:54:12;;;;;;;20.77;6.90;;;;;;;8.29;32.79;93689.69;5069040;28;20571;-68
2024/02/01 11:56:43;;;;;;;12.18;5.63;;;;;;;8.51;33.26;93692.25;5072855;28;20512;-68
2024/02/01 11:59:10;;;;;;;12.68;5.75;;;;;;;8.54;33.08;93691.94;5077112;28;20046;-68
2024/02/01 12:01:38;;;;;;;16.30;5.90;;;;;;;8.72;33.77;93679.63;5070807;28;20485;-68